sensor_id;sensor_type;location;lat;lon;timestamp;P1;durP1;ratioP1;P2;durP2;ratioP2
27983;SDS011;15317;50.360;8.726;2024-02-21T00:01:54;13.30;;;6.67;;
27983;SDS011;15317;50.360;8.726;2024-02-21T00:06:57;11.33;;;6.60;;
27983;SDS011;15317;50.360;8.726;2024-02-21T00:12:02;11.80;;;6.63;;
27983;SDS011;15317;50.360;8.726;2024-02-21T00:17:06;14.80;;;6.90;;
27983;SDS011;15317;50.360;8.726;2024-02-21T00:22:10;11.80;;;6.50;;
27983;SDS011;15317;50.360;8.726;2024-02-21T00:27:17;12.10;;;6.97;;
27983;SDS011;15317;50.360;8.726;2024-02-21T00:32:20;14.93;;;7.03;;
27983;SDS011;15317;50.360;8.726;2024-02-21T00:37:23;15.60;;;7.40;;
27983;SDS011;15317;50.360;8.726;2024-02-21T00:42:28;15.23;;;7.63;;
27983;SDS011;15317;50.360;8.726;2024-02-21T00:47:31;11.00;;;6.53;;
27983;SDS011;15317;50.360;8.726;2024-02-21T00:52:34;15.67;;;7.37;;
27983;SDS011;15317;50.360;8.726;2024-02-21T00:57:39;13.90;;;7.17;;
27983;SDS011;15317;50.360;8.726;2024-02-21T01:02:42;14.10;;;7.63;;
27983;SDS011;15317;50.360;8.726;2024-02-21T01:07:45;12.97;;;7.07;;
27983;SDS011;15317;50.360;8.726;2024-02-21T01:12:50;12.47;;;7.67;;
27983;SDS011;15317;50.360;8.726;2024-02-21T01:17:53;11.63;;;6.83;;
27983;SDS011;15317;50.360;8.726;2024-02-21T01:22:57;14.03;;;7.37;;
27983;SDS011;15317;50.360;8.726;2024-02-21T01:28:02;11.00;;;7.13;;
27983;SDS011;15317;50.360;8.726;2024-02-21T01:33:05;13.70;;;7.40;;
27983;SDS011;15317;50.360;8.726;2024-02-21T01:38:08;13.33;;;7.53;;
27983;SDS011;15317;50.360;8.726;2024-02-21T01:43:17;12.73;;;6.47;;
27983;SDS011;15317;50.360;8.726;2024-02-21T01:48:22;15.73;;;7.50;;
27983;SDS011;15317;50.360;8.726;2024-02-21T01:53:27;14.90;;;7.47;;
27983;SDS011;15317;50.360;8.726;2024-02-21T01:58:35;10.93;;;6.87;;
27983;SDS011;15317;50.360;8.726;2024-02-21T02:03:40;12.23;;;7.23;;
27983;SDS011;15317;50.360;8.726;2024-02-21T02:08:44;11.50;;;7.23;;
27983;SDS011;15317;50.360;8.726;2024-02-21T02:13:48;16.03;;;8.57;;
27983;SDS011;15317;50.360;8.726;2024-02-21T02:18:51;19.33;;;8.40;;
27983;SDS011;15317;50.360;8.726;2024-02-21T02:23:56;16.03;;;8.63;;
27983;SDS011;15317;50.360;8.726;2024-02-21T02:29:01;15.20;;;7.73;;
27983;SDS011;15317;50.360;8.726;2024-02-21T02:34:04;13.77;;;7.40;;
27983;SDS011;15317;50.360;8.726;2024-02-21T02:39:09;14.63;;;8.10;;
27983;SDS011;15317;50.360;8.726;2024-02-21T02:44:12;13.00;;;7.80;;
27983;SDS011;15317;50.360;8.726;2024-02-21T02:49:15;16.07;;;8.77;;
27983;SDS011;15317;50.360;8.726;2024-02-21T02:54:20;16.40;;;8.53;;
27983;SDS011;15317;50.360;8.726;2024-02-21T02:59:23;13.07;;;8.43;;
27983;SDS011;15317;50.360;8.726;2024-02-21T03:04:26;15.50;;;8.87;;
27983;SDS011;15317;50.360;8.726;2024-02-21T03:09:31;14.87;;;8.90;;
27983;SDS011;15317;50.360;8.726;2024-02-21T03:14:34;14.97;;;9.23;;
27983;SDS011;15317;50.360;8.726;2024-02-21T03:19:37;17.03;;;9.50;;
27983;SDS011;15317;50.360;8.726;2024-02-21T03:24:42;15.23;;;9.20;;
27983;SDS011;15317;50.360;8.726;2024-02-21T03:29:45;16.73;;;9.70;;
27983;SDS011;15317;50.360;8.726;2024-02-21T03:34:48;11.97;;;8.80;;
27983;SDS011;15317;50.360;8.726;2024-02-21T03:39:53;16.40;;;9.50;;
27983;SDS011;15317;50.360;8.726;2024-02-21T03:44:56;12.03;;;9.10;;
27983;SDS011;15317;50.360;8.726;2024-02-21T03:50:00;16.90;;;10.43;;
27983;SDS011;15317;50.360;8.726;2024-02-21T03:55:05;15.03;;;8.87;;
27983;SDS011;15317;50.360;8.726;2024-02-21T04:00:10;14.57;;;8.80;;
27983;SDS011;15317;50.360;8.726;2024-02-21T04:05:15;13.53;;;7.60;;
27983;SDS011;15317;50.360;8.726;2024-02-21T04:10:20;15.77;;;8.37;;
27983;SDS011;15317;50.360;8.726;2024-02-21T04:15:23;14.00;;;8.20;;
27983;SDS011;15317;50.360;8.726;2024-02-21T04:20:27;12.07;;;8.10;;
27983;SDS011;15317;50.360;8.726;2024-02-21T04:25:32;11.87;;;7.80;;
27983;SDS011;15317;50.360;8.726;2024-02-21T04:30:35;11.67;;;8.00;;
27983;SDS011;15317;50.360;8.726;2024-02-21T04:35:38;12.30;;;7.33;;
27983;SDS011;15317;50.360;8.726;2024-02-21T04:40:42;15.03;;;7.77;;
27983;SDS011;15317;50.360;8.726;2024-02-21T04:45:46;10.87;;;6.83;;
27983;SDS011;15317;50.360;8.726;2024-02-21T04:50:49;11.63;;;6.50;;
27983;SDS011;15317;50.360;8.726;2024-02-21T04:55:54;10.30;;;7.23;;
27983;SDS011;15317;50.360;8.726;2024-02-21T05:00:57;11.30;;;6.93;;
27983;SDS011;15317;50.360;8.726;2024-02-21T05:06:01;11.60;;;6.40;;
27983;SDS011;15317;50.360;8.726;2024-02-21T05:11:05;10.80;;;6.23;;
27983;SDS011;15317;50.360;8.726;2024-02-21T05:16:09;11.20;;;6.33;;
27983;SDS011;15317;50.360;8.726;2024-02-21T05:21:12;9.43;;;5.53;;
27983;SDS011;15317;50.360;8.726;2024-02-21T05:26:21;6.97;;;5.40;;
27983;SDS011;15317;50.360;8.726;2024-02-21T05:31:24;10.13;;;6.10;;
27983;SDS011;15317;50.360;8.726;2024-02-21T05:36:28;12.93;;;6.73;;
27983;SDS011;15317;50.360;8.726;2024-02-21T05:41:33;11.40;;;6.20;;
27983;SDS011;15317;50.360;8.726;2024-02-21T05:46:36;10.20;;;6.03;;
27983;SDS011;15317;50.360;8.726;2024-02-21T05:51:39;12.70;;;6.23;;
27983;SDS011;15317;50.360;8.726;2024-02-21T05:56:47;12.97;;;7.97;;
27983;SDS011;15317;50.360;8.726;2024-02-21T06:01:54;11.73;;;7.27;;
27983;SDS011;15317;50.360;8.726;2024-02-21T06:07:00;13.13;;;8.23;;
27983;SDS011;15317;50.360;8.726;2024-02-21T06:12:05;12.50;;;8.27;;
27983;SDS011;15317;50.360;8.726;2024-02-21T06:17:09;11.17;;;7.47;;
27983;SDS011;15317;50.360;8.726;2024-02-21T06:22:12;16.70;;;8.40;;
27983;SDS011;15317;50.360;8.726;2024-02-21T06:27:17;15.33;;;8.57;;
27983;SDS011;15317;50.360;8.726;2024-02-21T06:32:20;16.83;;;10.00;;
27983;SDS011;15317;50.360;8.726;2024-02-21T06:37:23;14.77;;;9.93;;
27983;SDS011;15317;50.360;8.726;2024-02-21T06:42:28;14.80;;;10.10;;
27983;SDS011;15317;50.360;8.726;2024-02-21T06:47:31;15.77;;;10.60;;
27983;SDS011;15317;50.360;8.726;2024-02-21T06:52:34;15.23;;;9.77;;
27983;SDS011;15317;50.360;8.726;2024-02-21T06:57:39;13.90;;;10.07;;
27983;SDS011;15317;50.360;8.726;2024-02-21T07:02:42;17.37;;;9.93;;
27983;SDS011;15317;50.360;8.726;2024-02-21T07:07:46;17.07;;;10.97;;
27983;SDS011;15317;50.360;8.726;2024-02-21T07:12:50;16.07;;;10.27;;
27983;SDS011;15317;50.360;8.726;2024-02-21T07:17:54;14.17;;;10.97;;
27983;SDS011;15317;50.360;8.726;2024-02-21T07:22:57;16.87;;;10.93;;
27983;SDS011;15317;50.360;8.726;2024-02-21T07:28:02;16.13;;;10.37;;
27983;SDS011;15317;50.360;8.726;2024-02-21T07:33:05;13.47;;;10.00;;
27983;SDS011;15317;50.360;8.726;2024-02-21T07:38:10;14.63;;;9.00;;
27983;SDS011;15317;50.360;8.726;2024-02-21T07:43:16;11.77;;;9.17;;
27983;SDS011;15317;50.360;8.726;2024-02-21T07:48:20;13.90;;;8.73;;
27983;SDS011;15317;50.360;8.726;2024-02-21T07:53:26;12.60;;;8.27;;
27983;SDS011;15317;50.360;8.726;2024-02-21T07:58:31;12.27;;;8.70;;
27983;SDS011;15317;50.360;8.726;2024-02-21T08:03:34;12.23;;;8.53;;
27983;SDS011;15317;50.360;8.726;2024-02-21T08:08:37;15.17;;;9.00;;
27983;SDS011;15317;50.360;8.726;2024-02-21T08:13:42;11.47;;;9.27;;
27983;SDS011;15317;50.360;8.726;2024-02-21T08:18:45;13.73;;;8.40;;
27983;SDS011;15317;50.360;8.726;2024-02-21T08:23:49;13.10;;;9.40;;
27983;SDS011;15317;50.360;8.726;2024-02-21T08:28:54;12.93;;;8.60;;
27983;SDS011;15317;50.360;8.726;2024-02-21T08:34:00;13.67;;;8.63;;
27983;SDS011;15317;50.360;8.726;2024-02-21T08:39:05;10.90;;;7.83;;
27983;SDS011;15317;50.360;8.726;2024-02-21T08:44:10;10.87;;;7.70;;
27983;SDS011;15317;50.360;8.726;2024-02-21T08:49:13;10.93;;;7.67;;
27983;SDS011;15317;50.360;8.726;2024-02-21T08:54:17;9.57;;;7.03;;
27983;SDS011;15317;50.360;8.726;2024-02-21T08:59:21;10.43;;;7.60;;
27983;SDS011;15317;50.360;8.726;2024-02-21T09:04:25;10.33;;;7.40;;
27983;SDS011;15317;50.360;8.726;2024-02-21T09:09:28;11.37;;;7.67;;
27983;SDS011;15317;50.360;8.726;2024-02-21T09:14:32;10.97;;;7.83;;
27983;SDS011;15317;50.360;8.726;2024-02-21T09:19:36;9.80;;;7.30;;
27983;SDS011;15317;50.360;8.726;2024-02-21T09:24:39;10.37;;;7.77;;
27983;SDS011;15317;50.360;8.726;2024-02-21T09:29:44;10.00;;;7.60;;
27983;SDS011;15317;50.360;8.726;2024-02-21T09:34:47;10.47;;;7.33;;
27983;SDS011;15317;50.360;8.726;2024-02-21T09:39:51;10.33;;;8.53;;
27983;SDS011;15317;50.360;8.726;2024-02-21T09:44:55;11.27;;;8.00;;
27983;SDS011;15317;50.360;8.726;2024-02-21T09:49:59;13.00;;;7.83;;
27983;SDS011;15317;50.360;8.726;2024-02-21T09:55:05;9.27;;;6.53;;
27983;SDS011;15317;50.360;8.726;2024-02-21T10:00:12;12.53;;;6.80;;
27983;SDS011;15317;50.360;8.726;2024-02-21T10:05:23;10.27;;;6.80;;
27983;SDS011;15317;50.360;8.726;2024-02-21T10:10:27;10.47;;;7.03;;
27983;SDS011;15317;50.360;8.726;2024-02-21T10:15:33;10.17;;;7.83;;
27983;SDS011;15317;50.360;8.726;2024-02-21T10:20:36;12.20;;;8.07;;
27983;SDS011;15317;50.360;8.726;2024-02-21T10:25:39;11.47;;;8.73;;
27983;SDS011;15317;50.360;8.726;2024-02-21T10:30:50;10.97;;;9.33;;
27983;SDS011;15317;50.360;8.726;2024-02-21T10:35:54;12.43;;;10.10;;
27983;SDS011;15317;50.360;8.726;2024-02-21T10:40:57;11.63;;;9.77;;
27983;SDS011;15317;50.360;8.726;2024-02-21T10:46:03;11.50;;;10.30;;
27983;SDS011;15317;50.360;8.726;2024-02-21T10:51:11;12.80;;;11.20;;
27983;SDS011;15317;50.360;8.726;2024-02-21T10:56:21;10.80;;;9.10;;
27983;SDS011;15317;50.360;8.726;2024-02-21T11:01:30;12.07;;;8.13;;
27983;SDS011;15317;50.360;8.726;2024-02-21T11:06:35;10.20;;;7.33;;
27983;SDS011;15317;50.360;8.726;2024-02-21T11:11:40;10.93;;;7.40;;
27983;SDS011;15317;50.360;8.726;2024-02-21T11:16:45;10.93;;;6.57;;
27983;SDS011;15317;50.360;8.726;2024-02-21T11:21:49;8.60;;;6.70;;
27983;SDS011;15317;50.360;8.726;2024-02-21T11:26:53;11.20;;;6.30;;
27983;SDS011;15317;50.360;8.726;2024-02-21T11:31:58;10.20;;;6.13;;
27983;SDS011;15317;50.360;8.726;2024-02-21T11:37:01;8.10;;;5.50;;
27983;SDS011;15317;50.360;8.726;2024-02-21T11:42:05;7.63;;;5.27;;
27983;SDS011;15317;50.360;8.726;2024-02-21T11:47:11;9.63;;;5.87;;
27983;SDS011;15317;50.360;8.726;2024-02-21T11:52:14;7.73;;;5.20;;
27983;SDS011;15317;50.360;8.726;2024-02-21T11:57:18;8.77;;;5.70;;
27983;SDS011;15317;50.360;8.726;2024-02-21T12:02:23;9.50;;;5.37;;
27983;SDS011;15317;50.360;8.726;2024-02-21T12:07:26;7.67;;;4.70;;
27983;SDS011;15317;50.360;8.726;2024-02-21T12:12:31;7.63;;;4.60;;
27983;SDS011;15317;50.360;8.726;2024-02-21T12:17:40;7.87;;;4.53;;
27983;SDS011;15317;50.360;8.726;2024-02-21T12:22:43;7.90;;;4.33;;
27983;SDS011;15317;50.360;8.726;2024-02-21T12:27:47;7.80;;;4.20;;
27983;SDS011;15317;50.360;8.726;2024-02-21T12:32:52;9.60;;;4.57;;
27983;SDS011;15317;50.360;8.726;2024-02-21T12:37:55;8.40;;;4.37;;
27983;SDS011;15317;50.360;8.726;2024-02-21T12:42:59;7.00;;;4.20;;
27983;SDS011;15317;50.360;8.726;2024-02-21T12:48:06;8.27;;;4.80;;
27983;SDS011;15317;50.360;8.726;2024-02-21T12:53:09;9.60;;;4.30;;
27983;SDS011;15317;50.360;8.726;2024-02-21T12:58:26;7.33;;;3.90;;
27983;SDS011;15317;50.360;8.726;2024-02-21T13:03:34;7.97;;;4.10;;
27983;SDS011;15317;50.360;8.726;2024-02-21T13:08:37;9.20;;;4.27;;
27983;SDS011;15317;50.360;8.726;2024-02-21T13:13:41;7.27;;;4.10;;
27983;SDS011;15317;50.360;8.726;2024-02-21T13:18:45;7.20;;;3.83;;
27983;SDS011;15317;50.360;8.726;2024-02-21T13:23:50;10.03;;;4.60;;
27983;SDS011;15317;50.360;8.726;2024-02-21T13:28:53;9.20;;;4.27;;
27983;SDS011;15317;50.360;8.726;2024-02-21T13:33:57;10.37;;;4.37;;
27983;SDS011;15317;50.360;8.726;2024-02-21T13:39:01;7.50;;;4.13;;
27983;SDS011;15317;50.360;8.726;2024-02-21T13:44:06;9.30;;;4.37;;
27983;SDS011;15317;50.360;8.726;2024-02-21T13:49:12;8.53;;;4.03;;
27983;SDS011;15317;50.360;8.726;2024-02-21T13:54:16;8.87;;;4.37;;
27983;SDS011;15317;50.360;8.726;2024-02-21T13:59:21;6.90;;;3.73;;
27983;SDS011;15317;50.360;8.726;2024-02-21T14:04:25;8.37;;;4.27;;
27983;SDS011;15317;50.360;8.726;2024-02-21T14:09:29;8.03;;;4.23;;
27983;SDS011;15317;50.360;8.726;2024-02-21T14:14:32;8.30;;;4.50;;
27983;SDS011;15317;50.360;8.726;2024-02-21T14:19:40;7.97;;;4.57;;
27983;SDS011;15317;50.360;8.726;2024-02-21T14:24:43;5.90;;;4.13;;
27983;SDS011;15317;50.360;8.726;2024-02-21T14:29:48;9.10;;;4.20;;
27983;SDS011;15317;50.360;8.726;2024-02-21T14:34:52;8.13;;;3.87;;
27983;SDS011;15317;50.360;8.726;2024-02-21T14:39:55;6.97;;;4.17;;
27983;SDS011;15317;50.360;8.726;2024-02-21T14:44:59;7.80;;;4.03;;
27983;SDS011;15317;50.360;8.726;2024-02-21T14:50:08;6.47;;;3.63;;
27983;SDS011;15317;50.360;8.726;2024-02-21T14:55:13;6.90;;;3.73;;
27983;SDS011;15317;50.360;8.726;2024-02-21T15:00:17;6.60;;;3.57;;
27983;SDS011;15317;50.360;8.726;2024-02-21T15:05:22;7.00;;;3.57;;
27983;SDS011;15317;50.360;8.726;2024-02-21T15:10:26;8.03;;;3.90;;
27983;SDS011;15317;50.360;8.726;2024-02-21T15:15:29;4.90;;;3.50;;
27983;SDS011;15317;50.360;8.726;2024-02-21T15:20:34;6.53;;;3.43;;
27983;SDS011;15317;50.360;8.726;2024-02-21T15:25:38;6.30;;;3.30;;
27983;SDS011;15317;50.360;8.726;2024-02-21T15:30:42;5.97;;;3.47;;
27983;SDS011;15317;50.360;8.726;2024-02-21T15:35:46;8.13;;;3.47;;
27983;SDS011;15317;50.360;8.726;2024-02-21T15:40:50;7.70;;;3.30;;
27983;SDS011;15317;50.360;8.726;2024-02-21T15:45:53;5.83;;;2.83;;
27983;SDS011;15317;50.360;8.726;2024-02-21T15:50:57;7.27;;;3.20;;
27983;SDS011;15317;50.360;8.726;2024-02-21T15:56:00;7.30;;;3.47;;
27983;SDS011;15317;50.360;8.726;2024-02-21T16:01:05;7.63;;;4.27;;
27983;SDS011;15317;50.360;8.726;2024-02-21T16:06:09;8.97;;;4.13;;
27983;SDS011;15317;50.360;8.726;2024-02-21T16:11:13;7.70;;;4.20;;
27983;SDS011;15317;50.360;8.726;2024-02-21T16:16:19;8.97;;;3.97;;
27983;SDS011;15317;50.360;8.726;2024-02-21T16:21:24;7.73;;;4.47;;
27983;SDS011;15317;50.360;8.726;2024-02-21T16:26:29;7.97;;;4.40;;
27983;SDS011;15317;50.360;8.726;2024-02-21T16:31:32;10.13;;;4.30;;
27983;SDS011;15317;50.360;8.726;2024-02-21T16:36:38;5.83;;;3.70;;
27983;SDS011;15317;50.360;8.726;2024-02-21T16:41:41;8.60;;;4.60;;
27983;SDS011;15317;50.360;8.726;2024-02-21T16:46:44;8.93;;;4.70;;
27983;SDS011;15317;50.360;8.726;2024-02-21T16:51:50;9.00;;;4.40;;
27983;SDS011;15317;50.360;8.726;2024-02-21T16:56:53;5.93;;;3.67;;
27983;SDS011;15317;50.360;8.726;2024-02-21T17:01:56;7.47;;;4.13;;
27983;SDS011;15317;50.360;8.726;2024-02-21T17:07:01;9.10;;;4.43;;
27983;SDS011;15317;50.360;8.726;2024-02-21T17:12:04;8.03;;;4.30;;
27983;SDS011;15317;50.360;8.726;2024-02-21T17:17:09;6.90;;;4.30;;
27983;SDS011;15317;50.360;8.726;2024-02-21T17:22:19;8.47;;;4.57;;
27983;SDS011;15317;50.360;8.726;2024-02-21T17:27:22;10.10;;;4.47;;
27983;SDS011;15317;50.360;8.726;2024-02-21T17:32:25;9.27;;;4.80;;
27983;SDS011;15317;50.360;8.726;2024-02-21T17:37:30;10.63;;;5.07;;
27983;SDS011;15317;50.360;8.726;2024-02-21T17:42:35;8.00;;;4.57;;
27983;SDS011;15317;50.360;8.726;2024-02-21T17:47:38;10.23;;;5.33;;
27983;SDS011;15317;50.360;8.726;2024-02-21T17:52:43;8.67;;;5.17;;
27983;SDS011;15317;50.360;8.726;2024-02-21T17:57:46;10.47;;;5.87;;
27983;SDS011;15317;50.360;8.726;2024-02-21T18:02:51;7.47;;;5.03;;
27983;SDS011;15317;50.360;8.726;2024-02-21T18:07:56;7.93;;;5.13;;
27983;SDS011;15317;50.360;8.726;2024-02-21T18:12:59;8.63;;;5.30;;
27983;SDS011;15317;50.360;8.726;2024-02-21T18:18:04;8.37;;;4.53;;
27983;SDS011;15317;50.360;8.726;2024-02-21T18:23:09;9.17;;;4.80;;
27983;SDS011;15317;50.360;8.726;2024-02-21T18:28:12;10.73;;;5.43;;
27983;SDS011;15317;50.360;8.726;2024-02-21T18:33:16;10.27;;;4.67;;
27983;SDS011;15317;50.360;8.726;2024-02-21T18:38:20;7.43;;;4.43;;
27983;SDS011;15317;50.360;8.726;2024-02-21T18:43:24;8.43;;;4.57;;
27983;SDS011;15317;50.360;8.726;2024-02-21T18:48:27;6.87;;;4.30;;
27983;SDS011;15317;50.360;8.726;2024-02-21T18:53:32;9.80;;;4.37;;
27983;SDS011;15317;50.360;8.726;2024-02-21T18:58:35;9.67;;;4.20;;
27983;SDS011;15317;50.360;8.726;2024-02-21T19:03:38;7.63;;;4.13;;
27983;SDS011;15317;50.360;8.726;2024-02-21T19:08:43;8.77;;;4.50;;
27983;SDS011;15317;50.360;8.726;2024-02-21T19:13:46;8.07;;;4.77;;
27983;SDS011;15317;50.360;8.726;2024-02-21T19:18:49;7.23;;;3.93;;
27983;SDS011;15317;50.360;8.726;2024-02-21T19:23:54;8.10;;;4.73;;
27983;SDS011;15317;50.360;8.726;2024-02-21T19:28:57;8.77;;;4.70;;
27983;SDS011;15317;50.360;8.726;2024-02-21T19:34:00;10.27;;;4.70;;
27983;SDS011;15317;50.360;8.726;2024-02-21T19:39:07;7.23;;;4.70;;
27983;SDS011;15317;50.360;8.726;2024-02-21T19:44:11;9.27;;;4.90;;
27983;SDS011;15317;50.360;8.726;2024-02-21T19:49:15;8.07;;;4.90;;
27983;SDS011;15317;50.360;8.726;2024-02-21T19:54:20;6.47;;;4.43;;
27983;SDS011;15317;50.360;8.726;2024-02-21T19:59:26;8.53;;;4.83;;
27983;SDS011;15317;50.360;8.726;2024-02-21T20:04:29;8.37;;;4.47;;
27983;SDS011;15317;50.360;8.726;2024-02-21T20:09:34;7.67;;;5.10;;
27983;SDS011;15317;50.360;8.726;2024-02-21T20:14:38;11.17;;;5.80;;
27983;SDS011;15317;50.360;8.726;2024-02-21T20:19:41;9.50;;;5.30;;
27983;SDS011;15317;50.360;8.726;2024-02-21T20:24:46;9.50;;;5.90;;
27983;SDS011;15317;50.360;8.726;2024-02-21T20:29:49;8.53;;;5.80;;
27983;SDS011;15317;50.360;8.726;2024-02-21T20:34:52;10.83;;;6.07;;
27983;SDS011;15317;50.360;8.726;2024-02-21T20:39:57;8.47;;;6.00;;
27983;SDS011;15317;50.360;8.726;2024-02-21T20:45:00;8.23;;;6.13;;
27983;SDS011;15317;50.360;8.726;2024-02-21T20:50:04;10.30;;;6.13;;
27983;SDS011;15317;50.360;8.726;2024-02-21T20:55:09;9.77;;;6.30;;
27983;SDS011;15317;50.360;8.726;2024-02-21T21:00:13;8.53;;;6.10;;
27983;SDS011;15317;50.360;8.726;2024-02-21T21:05:17;8.43;;;6.17;;
27983;SDS011;15317;50.360;8.726;2024-02-21T21:10:21;10.17;;;6.80;;
27983;SDS011;15317;50.360;8.726;2024-02-21T21:15:25;9.57;;;6.93;;
27983;SDS011;15317;50.360;8.726;2024-02-21T21:20:30;9.07;;;7.20;;
27983;SDS011;15317;50.360;8.726;2024-02-21T21:25:37;9.87;;;7.37;;
27983;SDS011;15317;50.360;8.726;2024-02-21T21:30:41;8.90;;;7.30;;
27983;SDS011;15317;50.360;8.726;2024-02-21T21:35:44;12.10;;;8.30;;
27983;SDS011;15317;50.360;8.726;2024-02-21T21:40:52;10.50;;;8.07;;
27983;SDS011;15317;50.360;8.726;2024-02-21T21:45:55;10.80;;;8.43;;
27983;SDS011;15317;50.360;8.726;2024-02-21T21:50:58;10.33;;;8.23;;
27983;SDS011;15317;50.360;8.726;2024-02-21T21:56:03;10.50;;;8.00;;
27983;SDS011;15317;50.360;8.726;2024-02-21T22:01:09;14.53;;;8.73;;
27983;SDS011;15317;50.360;8.726;2024-02-21T22:06:15;10.73;;;8.57;;
27983;SDS011;15317;50.360;8.726;2024-02-21T22:11:19;12.73;;;9.30;;
27983;SDS011;15317;50.360;8.726;2024-02-21T22:16:22;11.17;;;9.07;;
27983;SDS011;15317;50.360;8.726;2024-02-21T22:21:26;11.67;;;7.93;;
27983;SDS011;15317;50.360;8.726;2024-02-21T22:26:31;12.17;;;8.20;;
27983;SDS011;15317;50.360;8.726;2024-02-21T22:31:34;10.07;;;9.07;;
27983;SDS011;15317;50.360;8.726;2024-02-21T22:36:37;9.80;;;8.40;;
27983;SDS011;15317;50.360;8.726;2024-02-21T22:41:42;11.37;;;8.80;;
27983;SDS011;15317;50.360;8.726;2024-02-21T22:46:47;12.27;;;9.23;;
27983;SDS011;15317;50.360;8.726;2024-02-21T22:51:50;13.07;;;9.70;;
27983;SDS011;15317;50.360;8.726;2024-02-21T22:56:54;11.03;;;9.53;;
27983;SDS011;15317;50.360;8.726;2024-02-21T23:01:57;10.23;;;9.20;;
27983;SDS011;15317;50.360;8.726;2024-02-21T23:07:01;11.17;;;9.53;;
27983;SDS011;15317;50.360;8.726;2024-02-21T23:12:06;10.03;;;9.00;;
27983;SDS011;15317;50.360;8.726;2024-02-21T23:17:11;9.77;;;8.77;;
27983;SDS011;15317;50.360;8.726;2024-02-21T23:22:14;10.67;;;9.57;;
27983;SDS011;15317;50.360;8.726;2024-02-21T23:27:18;10.33;;;9.33;;
27983;SDS011;15317;50.360;8.726;2024-02-21T23:32:21;11.03;;;9.93;;
27983;SDS011;15317;50.360;8.726;2024-02-21T23:37:26;11.90;;;10.57;;
27983;SDS011;15317;50.360;8.726;2024-02-21T23:42:30;11.50;;;10.33;;
27983;SDS011;15317;50.360;8.726;2024-02-21T23:47:34;11.67;;;10.57;;
27983;SDS011;15317;50.360;8.726;2024-02-21T23:52:37;10.50;;;9.50;;
27983;SDS011;15317;50.360;8.726;2024-02-21T23:57:42;11.67;;;10.07;;
